sensor_id;sensor_type;location;lat;lon;timestamp;P1;durP1;ratioP1;P2;durP2;ratioP2
56181;SDS011;51963;46.052;14.544;2024-01-16T00:02:24;15.68;;;7.95;;
56181;SDS011;51963;46.052;14.544;2024-01-16T00:04:50;17.48;;;8.32;;
56181;SDS011;51963;46.052;14.544;2024-01-16T00:07:16;15.63;;;8.23;;
56181;SDS011;51963;46.052;14.544;2024-01-16T00:09:41;17.13;;;8.05;;
56181;SDS011;51963;46.052;14.544;2024-01-16T00:12:07;15.70;;;8.30;;
56181;SDS011;51963;46.052;14.544;2024-01-16T00:14:36;16.42;;;8.02;;
56181;SDS011;51963;46.052;14.544;2024-01-16T00:17:02;16.23;;;8.52;;
56181;SDS011;51963;46.052;14.544;2024-01-16T00:19:28;14.38;;;7.63;;
56181;SDS011;51963;46.052;14.544;2024-01-16T00:21:54;15.95;;;7.70;;
56181;SDS011;51963;46.052;14.544;2024-01-16T00:24:20;16.75;;;8.05;;
56181;SDS011;51963;46.052;14.544;2024-01-16T00:26:45;16.40;;;8.10;;
56181;SDS011;51963;46.052;14.544;2024-01-16T00:29:11;15.50;;;8.48;;
56181;SDS011;51963;46.052;14.544;2024-01-16T00:31:38;17.75;;;8.50;;
56181;SDS011;51963;46.052;14.544;2024-01-16T00:34:04;19.08;;;8.40;;
56181;SDS011;51963;46.052;14.544;2024-01-16T00:36:29;14.15;;;7.72;;
56181;SDS011;51963;46.052;14.544;2024-01-16T00:38:56;17.00;;;7.95;;
56181;SDS011;51963;46.052;14.544;2024-01-16T00:41:21;17.75;;;8.25;;
56181;SDS011;51963;46.052;14.544;2024-01-16T00:43:47;16.70;;;8.38;;
56181;SDS011;51963;46.052;14.544;2024-01-16T00:46:13;17.05;;;8.18;;
56181;SDS011;51963;46.052;14.544;2024-01-16T00:48:39;15.32;;;7.50;;
56181;SDS011;51963;46.052;14.544;2024-01-16T00:51:04;16.15;;;7.82;;
56181;SDS011;51963;46.052;14.544;2024-01-16T00:53:30;15.60;;;8.50;;
56181;SDS011;51963;46.052;14.544;2024-01-16T00:55:56;16.67;;;8.18;;
56181;SDS011;51963;46.052;14.544;2024-01-16T00:58:22;15.75;;;7.88;;
56181;SDS011;51963;46.052;14.544;2024-01-16T01:00:48;15.75;;;8.18;;
56181;SDS011;51963;46.052;14.544;2024-01-16T01:03:14;18.17;;;8.15;;
56181;SDS011;51963;46.052;14.544;2024-01-16T01:05:40;14.85;;;7.88;;
56181;SDS011;51963;46.052;14.544;2024-01-16T01:08:06;16.38;;;8.05;;
56181;SDS011;51963;46.052;14.544;2024-01-16T01:10:31;17.25;;;8.00;;
56181;SDS011;51963;46.052;14.544;2024-01-16T01:12:57;17.10;;;8.25;;
56181;SDS011;51963;46.052;14.544;2024-01-16T01:15:23;16.95;;;8.40;;
56181;SDS011;51963;46.052;14.544;2024-01-16T01:17:49;17.67;;;8.88;;
56181;SDS011;51963;46.052;14.544;2024-01-16T01:20:15;15.27;;;8.10;;
56181;SDS011;51963;46.052;14.544;2024-01-16T01:22:43;19.35;;;8.05;;
56181;SDS011;51963;46.052;14.544;2024-01-16T01:25:09;18.77;;;8.60;;
56181;SDS011;51963;46.052;14.544;2024-01-16T01:27:37;20.60;;;8.82;;
56181;SDS011;51963;46.052;14.544;2024-01-16T01:30:03;19.38;;;9.20;;
56181;SDS011;51963;46.052;14.544;2024-01-16T01:32:29;19.42;;;8.82;;
56181;SDS011;51963;46.052;14.544;2024-01-16T01:34:55;18.95;;;9.32;;
56181;SDS011;51963;46.052;14.544;2024-01-16T01:37:20;16.42;;;8.82;;
56181;SDS011;51963;46.052;14.544;2024-01-16T01:39:46;18.10;;;8.52;;
56181;SDS011;51963;46.052;14.544;2024-01-16T01:42:12;17.13;;;8.15;;
56181;SDS011;51963;46.052;14.544;2024-01-16T01:44:37;16.10;;;8.88;;
56181;SDS011;51963;46.052;14.544;2024-01-16T01:47:03;16.00;;;8.15;;
56181;SDS011;51963;46.052;14.544;2024-01-16T01:49:30;20.02;;;8.85;;
56181;SDS011;51963;46.052;14.544;2024-01-16T01:51:56;17.67;;;8.27;;
56181;SDS011;51963;46.052;14.544;2024-01-16T01:54:22;17.67;;;8.65;;
56181;SDS011;51963;46.052;14.544;2024-01-16T01:56:49;16.35;;;8.43;;
56181;SDS011;51963;46.052;14.544;2024-01-16T01:59:15;16.42;;;8.27;;
56181;SDS011;51963;46.052;14.544;2024-01-16T02:01:48;15.52;;;8.00;;
56181;SDS011;51963;46.052;14.544;2024-01-16T02:04:18;15.63;;;7.45;;
56181;SDS011;51963;46.052;14.544;2024-01-16T02:06:45;14.73;;;8.05;;
56181;SDS011;51963;46.052;14.544;2024-01-16T02:09:11;15.32;;;8.02;;
56181;SDS011;51963;46.052;14.544;2024-01-16T02:11:41;15.50;;;7.47;;
56181;SDS011;51963;46.052;14.544;2024-01-16T02:14:08;16.00;;;7.93;;
56181;SDS011;51963;46.052;14.544;2024-01-16T02:16:38;12.13;;;6.43;;
56181;SDS011;51963;46.052;14.544;2024-01-16T02:19:05;11.57;;;6.45;;
56181;SDS011;51963;46.052;14.544;2024-01-16T02:21:35;12.93;;;6.35;;
56181;SDS011;51963;46.052;14.544;2024-01-16T02:24:05;11.82;;;5.82;;
56181;SDS011;51963;46.052;14.544;2024-01-16T02:26:32;14.13;;;6.57;;
56181;SDS011;51963;46.052;14.544;2024-01-16T02:29:00;10.75;;;5.57;;
56181;SDS011;51963;46.052;14.544;2024-01-16T02:31:26;12.95;;;5.50;;
56181;SDS011;51963;46.052;14.544;2024-01-16T02:33:52;12.10;;;5.95;;
56181;SDS011;51963;46.052;14.544;2024-01-16T02:36:18;12.57;;;6.55;;
56181;SDS011;51963;46.052;14.544;2024-01-16T02:38:43;13.25;;;6.25;;
56181;SDS011;51963;46.052;14.544;2024-01-16T02:41:12;13.63;;;7.25;;
56181;SDS011;51963;46.052;14.544;2024-01-16T02:43:39;10.98;;;6.47;;
56181;SDS011;51963;46.052;14.544;2024-01-16T02:46:04;12.13;;;6.70;;
56181;SDS011;51963;46.052;14.544;2024-01-16T02:48:30;13.88;;;6.57;;
56181;SDS011;51963;46.052;14.544;2024-01-16T02:50:55;12.82;;;6.80;;
56181;SDS011;51963;46.052;14.544;2024-01-16T02:53:21;13.20;;;6.53;;
56181;SDS011;51963;46.052;14.544;2024-01-16T02:55:47;12.05;;;6.25;;
56181;SDS011;51963;46.052;14.544;2024-01-16T02:58:12;12.27;;;6.43;;
56181;SDS011;51963;46.052;14.544;2024-01-16T03:00:38;14.48;;;7.05;;
56181;SDS011;51963;46.052;14.544;2024-01-16T03:03:04;11.85;;;6.68;;
56181;SDS011;51963;46.052;14.544;2024-01-16T03:05:30;13.45;;;7.15;;
56181;SDS011;51963;46.052;14.544;2024-01-16T03:07:55;13.90;;;7.38;;
56181;SDS011;51963;46.052;14.544;2024-01-16T03:10:21;11.35;;;6.55;;
56181;SDS011;51963;46.052;14.544;2024-01-16T03:12:47;13.55;;;7.20;;
56181;SDS011;51963;46.052;14.544;2024-01-16T03:15:12;14.52;;;7.65;;
56181;SDS011;51963;46.052;14.544;2024-01-16T03:17:38;14.50;;;7.55;;
56181;SDS011;51963;46.052;14.544;2024-01-16T03:20:04;14.38;;;7.07;;
56181;SDS011;51963;46.052;14.544;2024-01-16T03:22:30;13.77;;;7.50;;
56181;SDS011;51963;46.052;14.544;2024-01-16T03:24:55;13.32;;;6.90;;
56181;SDS011;51963;46.052;14.544;2024-01-16T03:27:22;14.13;;;6.60;;
56181;SDS011;51963;46.052;14.544;2024-01-16T03:29:47;14.02;;;6.65;;
56181;SDS011;51963;46.052;14.544;2024-01-16T03:32:13;14.93;;;7.63;;
56181;SDS011;51963;46.052;14.544;2024-01-16T03:34:39;13.57;;;7.15;;
56181;SDS011;51963;46.052;14.544;2024-01-16T03:37:05;14.68;;;6.18;;
56181;SDS011;51963;46.052;14.544;2024-01-16T03:39:31;12.77;;;7.10;;
56181;SDS011;51963;46.052;14.544;2024-01-16T03:41:56;12.98;;;6.35;;
56181;SDS011;51963;46.052;14.544;2024-01-16T03:44:22;12.52;;;6.32;;
56181;SDS011;51963;46.052;14.544;2024-01-16T03:46:48;14.45;;;6.85;;
56181;SDS011;51963;46.052;14.544;2024-01-16T03:49:13;12.32;;;5.93;;
56181;SDS011;51963;46.052;14.544;2024-01-16T03:51:39;12.73;;;5.85;;
56181;SDS011;51963;46.052;14.544;2024-01-16T03:56:33;16.02;;;6.50;;
56181;SDS011;51963;46.052;14.544;2024-01-16T03:58:59;13.13;;;6.72;;
56181;SDS011;51963;46.052;14.544;2024-01-16T04:01:31;17.70;;;7.40;;
56181;SDS011;51963;46.052;14.544;2024-01-16T04:03:58;12.60;;;6.50;;
56181;SDS011;51963;46.052;14.544;2024-01-16T04:06:23;13.13;;;6.95;;
56181;SDS011;51963;46.052;14.544;2024-01-16T04:08:49;13.70;;;6.28;;
56181;SDS011;51963;46.052;14.544;2024-01-16T04:11:15;16.13;;;6.70;;
56181;SDS011;51963;46.052;14.544;2024-01-16T04:13:41;14.15;;;6.93;;
56181;SDS011;51963;46.052;14.544;2024-01-16T04:16:07;11.45;;;6.05;;
56181;SDS011;51963;46.052;14.544;2024-01-16T04:18:36;12.07;;;5.75;;
56181;SDS011;51963;46.052;14.544;2024-01-16T04:21:05;11.38;;;5.95;;
56181;SDS011;51963;46.052;14.544;2024-01-16T04:23:31;12.25;;;6.30;;
56181;SDS011;51963;46.052;14.544;2024-01-16T04:25:58;11.93;;;6.25;;
56181;SDS011;51963;46.052;14.544;2024-01-16T04:28:24;11.45;;;6.05;;
56181;SDS011;51963;46.052;14.544;2024-01-16T04:30:50;11.25;;;5.80;;
56181;SDS011;51963;46.052;14.544;2024-01-16T04:33:16;13.40;;;6.70;;
56181;SDS011;51963;46.052;14.544;2024-01-16T04:35:41;14.07;;;6.18;;
56181;SDS011;51963;46.052;14.544;2024-01-16T04:38:07;12.18;;;6.03;;
56181;SDS011;51963;46.052;14.544;2024-01-16T04:40:33;11.10;;;6.28;;
56181;SDS011;51963;46.052;14.544;2024-01-16T04:42:59;11.30;;;6.05;;
56181;SDS011;51963;46.052;14.544;2024-01-16T04:45:25;11.70;;;6.10;;
56181;SDS011;51963;46.052;14.544;2024-01-16T04:47:50;10.52;;;5.53;;
56181;SDS011;51963;46.052;14.544;2024-01-16T04:50:16;10.77;;;5.38;;
56181;SDS011;51963;46.052;14.544;2024-01-16T04:52:42;12.55;;;6.13;;
56181;SDS011;51963;46.052;14.544;2024-01-16T04:55:09;11.32;;;5.90;;
56181;SDS011;51963;46.052;14.544;2024-01-16T04:57:34;10.95;;;5.50;;
56181;SDS011;51963;46.052;14.544;2024-01-16T05:00:00;10.07;;;4.97;;
56181;SDS011;51963;46.052;14.544;2024-01-16T05:02:26;11.98;;;5.53;;
56181;SDS011;51963;46.052;14.544;2024-01-16T05:04:52;11.73;;;5.35;;
56181;SDS011;51963;46.052;14.544;2024-01-16T05:07:17;10.93;;;5.50;;
56181;SDS011;51963;46.052;14.544;2024-01-16T05:12:12;7.40;;;4.28;;
56181;SDS011;51963;46.052;14.544;2024-01-16T05:14:38;9.45;;;4.47;;
56181;SDS011;51963;46.052;14.544;2024-01-16T05:17:04;11.02;;;5.07;;
56181;SDS011;51963;46.052;14.544;2024-01-16T05:19:29;8.82;;;4.53;;
56181;SDS011;51963;46.052;14.544;2024-01-16T05:21:55;8.55;;;4.00;;
56181;SDS011;51963;46.052;14.544;2024-01-16T05:24:21;10.70;;;6.20;;
56181;SDS011;51963;46.052;14.544;2024-01-16T05:26:46;9.15;;;4.30;;
56181;SDS011;51963;46.052;14.544;2024-01-16T05:29:12;10.43;;;4.68;;
56181;SDS011;51963;46.052;14.544;2024-01-16T05:31:41;8.98;;;4.80;;
56181;SDS011;51963;46.052;14.544;2024-01-16T05:34:08;11.27;;;5.10;;
56181;SDS011;51963;46.052;14.544;2024-01-16T05:36:36;7.32;;;3.95;;
56181;SDS011;51963;46.052;14.544;2024-01-16T05:39:02;9.48;;;4.38;;
56181;SDS011;51963;46.052;14.544;2024-01-16T05:41:37;9.80;;;4.63;;
56181;SDS011;51963;46.052;14.544;2024-01-16T05:44:03;9.88;;;5.13;;
56181;SDS011;51963;46.052;14.544;2024-01-16T05:46:29;11.07;;;5.78;;
56181;SDS011;51963;46.052;14.544;2024-01-16T05:48:56;9.90;;;5.23;;
56181;SDS011;51963;46.052;14.544;2024-01-16T05:51:23;12.32;;;5.65;;
56181;SDS011;51963;46.052;14.544;2024-01-16T05:53:49;10.13;;;5.07;;
56181;SDS011;51963;46.052;14.544;2024-01-16T05:56:14;10.18;;;5.03;;
56181;SDS011;51963;46.052;14.544;2024-01-16T05:58:40;11.18;;;5.13;;
56181;SDS011;51963;46.052;14.544;2024-01-16T06:01:06;10.93;;;5.00;;
56181;SDS011;51963;46.052;14.544;2024-01-16T06:03:32;9.43;;;5.00;;
56181;SDS011;51963;46.052;14.544;2024-01-16T06:05:57;10.13;;;4.78;;
56181;SDS011;51963;46.052;14.544;2024-01-16T06:08:23;9.60;;;4.97;;
56181;SDS011;51963;46.052;14.544;2024-01-16T06:10:49;8.57;;;4.70;;
56181;SDS011;51963;46.052;14.544;2024-01-16T06:13:15;8.95;;;4.47;;
56181;SDS011;51963;46.052;14.544;2024-01-16T06:15:41;10.63;;;4.63;;
56181;SDS011;51963;46.052;14.544;2024-01-16T06:18:06;7.65;;;4.45;;
56181;SDS011;51963;46.052;14.544;2024-01-16T06:20:33;8.07;;;4.57;;
56181;SDS011;51963;46.052;14.544;2024-01-16T06:22:59;7.47;;;4.10;;
56181;SDS011;51963;46.052;14.544;2024-01-16T06:25:24;12.35;;;4.47;;
56181;SDS011;51963;46.052;14.544;2024-01-16T06:27:50;9.75;;;4.53;;
56181;SDS011;51963;46.052;14.544;2024-01-16T06:30:16;8.20;;;3.90;;
56181;SDS011;51963;46.052;14.544;2024-01-16T06:32:41;11.57;;;4.38;;
56181;SDS011;51963;46.052;14.544;2024-01-16T06:35:07;8.73;;;4.32;;
56181;SDS011;51963;46.052;14.544;2024-01-16T06:37:33;8.55;;;4.38;;
56181;SDS011;51963;46.052;14.544;2024-01-16T06:39:59;8.00;;;4.38;;
56181;SDS011;51963;46.052;14.544;2024-01-16T06:42:25;9.88;;;5.43;;
56181;SDS011;51963;46.052;14.544;2024-01-16T06:44:51;8.05;;;4.55;;
56181;SDS011;51963;46.052;14.544;2024-01-16T06:47:16;6.60;;;3.15;;
56181;SDS011;51963;46.052;14.544;2024-01-16T06:49:42;5.07;;;2.45;;
56181;SDS011;51963;46.052;14.544;2024-01-16T06:52:08;5.15;;;2.53;;
56181;SDS011;51963;46.052;14.544;2024-01-16T06:54:34;5.18;;;2.42;;
56181;SDS011;51963;46.052;14.544;2024-01-16T06:57:00;4.55;;;2.35;;
56181;SDS011;51963;46.052;14.544;2024-01-16T06:59:26;3.58;;;2.13;;
56181;SDS011;51963;46.052;14.544;2024-01-16T07:01:51;3.30;;;2.10;;
56181;SDS011;51963;46.052;14.544;2024-01-16T07:04:17;3.65;;;2.05;;
56181;SDS011;51963;46.052;14.544;2024-01-16T07:06:43;5.63;;;2.38;;
56181;SDS011;51963;46.052;14.544;2024-01-16T07:09:09;3.33;;;2.15;;
56181;SDS011;51963;46.052;14.544;2024-01-16T07:11:38;3.92;;;2.65;;
56181;SDS011;51963;46.052;14.544;2024-01-16T07:14:06;5.38;;;2.45;;
56181;SDS011;51963;46.052;14.544;2024-01-16T07:16:33;2.95;;;2.05;;
56181;SDS011;51963;46.052;14.544;2024-01-16T07:18:58;4.05;;;2.28;;
56181;SDS011;51963;46.052;14.544;2024-01-16T07:21:24;4.85;;;2.17;;
56181;SDS011;51963;46.052;14.544;2024-01-16T07:23:49;3.88;;;2.20;;
56181;SDS011;51963;46.052;14.544;2024-01-16T07:26:15;5.78;;;2.10;;
56181;SDS011;51963;46.052;14.544;2024-01-16T07:28:41;5.25;;;2.53;;
56181;SDS011;51963;46.052;14.544;2024-01-16T07:31:07;3.40;;;2.20;;
56181;SDS011;51963;46.052;14.544;2024-01-16T07:33:34;3.70;;;2.28;;
56181;SDS011;51963;46.052;14.544;2024-01-16T07:36:00;4.68;;;2.28;;
56181;SDS011;51963;46.052;14.544;2024-01-16T07:38:26;4.97;;;1.95;;
56181;SDS011;51963;46.052;14.544;2024-01-16T07:40:52;3.42;;;1.80;;
56181;SDS011;51963;46.052;14.544;2024-01-16T07:43:18;3.10;;;1.75;;
56181;SDS011;51963;46.052;14.544;2024-01-16T07:45:43;3.45;;;2.03;;
56181;SDS011;51963;46.052;14.544;2024-01-16T07:48:09;3.05;;;1.80;;
56181;SDS011;51963;46.052;14.544;2024-01-16T07:50:35;3.90;;;1.83;;
56181;SDS011;51963;46.052;14.544;2024-01-16T07:53:00;5.15;;;1.95;;
56181;SDS011;51963;46.052;14.544;2024-01-16T07:55:26;9.18;;;4.05;;
56181;SDS011;51963;46.052;14.544;2024-01-16T07:57:53;4.90;;;1.95;;
56181;SDS011;51963;46.052;14.544;2024-01-16T08:00:19;3.17;;;1.90;;
56181;SDS011;51963;46.052;14.544;2024-01-16T08:02:45;6.57;;;2.20;;
56181;SDS011;51963;46.052;14.544;2024-01-16T08:05:10;3.15;;;1.50;;
56181;SDS011;51963;46.052;14.544;2024-01-16T08:07:36;3.53;;;1.65;;
56181;SDS011;51963;46.052;14.544;2024-01-16T08:10:02;2.70;;;1.65;;
56181;SDS011;51963;46.052;14.544;2024-01-16T08:12:28;3.10;;;1.55;;
56181;SDS011;51963;46.052;14.544;2024-01-16T08:14:53;1.90;;;1.10;;
56181;SDS011;51963;46.052;14.544;2024-01-16T08:17:19;2.50;;;1.13;;
56181;SDS011;51963;46.052;14.544;2024-01-16T08:19:45;1.75;;;1.17;;
56181;SDS011;51963;46.052;14.544;2024-01-16T08:22:10;3.83;;;1.40;;
56181;SDS011;51963;46.052;14.544;2024-01-16T08:24:36;3.13;;;1.38;;
56181;SDS011;51963;46.052;14.544;2024-01-16T08:27:02;3.08;;;1.50;;
56181;SDS011;51963;46.052;14.544;2024-01-16T08:29:28;2.45;;;1.27;;
56181;SDS011;51963;46.052;14.544;2024-01-16T08:31:53;2.80;;;1.48;;
56181;SDS011;51963;46.052;14.544;2024-01-16T08:34:19;3.25;;;1.45;;
56181;SDS011;51963;46.052;14.544;2024-01-16T08:36:45;2.17;;;1.40;;
56181;SDS011;51963;46.052;14.544;2024-01-16T08:39:11;2.88;;;1.80;;
56181;SDS011;51963;46.052;14.544;2024-01-16T08:41:37;3.33;;;1.73;;
56181;SDS011;51963;46.052;14.544;2024-01-16T08:44:02;4.05;;;1.98;;
56181;SDS011;51963;46.052;14.544;2024-01-16T08:46:29;4.18;;;2.03;;
56181;SDS011;51963;46.052;14.544;2024-01-16T08:48:55;5.10;;;3.15;;
56181;SDS011;51963;46.052;14.544;2024-01-16T08:51:20;6.32;;;3.20;;
56181;SDS011;51963;46.052;14.544;2024-01-16T08:53:46;6.18;;;3.55;;
56181;SDS011;51963;46.052;14.544;2024-01-16T08:56:12;6.75;;;3.92;;
56181;SDS011;51963;46.052;14.544;2024-01-16T08:58:38;7.45;;;3.90;;
56181;SDS011;51963;46.052;14.544;2024-01-16T09:01:05;8.43;;;4.20;;
56181;SDS011;51963;46.052;14.544;2024-01-16T09:03:34;7.45;;;4.18;;
56181;SDS011;51963;46.052;14.544;2024-01-16T09:06:00;9.13;;;4.10;;
56181;SDS011;51963;46.052;14.544;2024-01-16T09:08:26;6.80;;;3.83;;
56181;SDS011;51963;46.052;14.544;2024-01-16T09:10:52;9.02;;;3.90;;
56181;SDS011;51963;46.052;14.544;2024-01-16T09:13:19;8.30;;;3.50;;
56181;SDS011;51963;46.052;14.544;2024-01-16T09:15:48;6.53;;;3.35;;
56181;SDS011;51963;46.052;14.544;2024-01-16T09:18:15;7.53;;;3.45;;
56181;SDS011;51963;46.052;14.544;2024-01-16T09:20:42;6.60;;;2.72;;
56181;SDS011;51963;46.052;14.544;2024-01-16T09:23:08;5.50;;;2.10;;
56181;SDS011;51963;46.052;14.544;2024-01-16T09:25:34;4.80;;;2.53;;
56181;SDS011;51963;46.052;14.544;2024-01-16T09:28:00;4.80;;;2.30;;
56181;SDS011;51963;46.052;14.544;2024-01-16T09:30:26;4.32;;;2.10;;
56181;SDS011;51963;46.052;14.544;2024-01-16T09:32:52;3.50;;;2.33;;
56181;SDS011;51963;46.052;14.544;2024-01-16T09:35:17;3.67;;;2.00;;
56181;SDS011;51963;46.052;14.544;2024-01-16T09:37:43;3.35;;;1.63;;
56181;SDS011;51963;46.052;14.544;2024-01-16T09:40:09;3.30;;;1.65;;
56181;SDS011;51963;46.052;14.544;2024-01-16T09:42:35;3.85;;;2.00;;
56181;SDS011;51963;46.052;14.544;2024-01-16T09:45:01;6.78;;;2.25;;
56181;SDS011;51963;46.052;14.544;2024-01-16T09:47:28;3.38;;;1.65;;
56181;SDS011;51963;46.052;14.544;2024-01-16T09:49:56;3.28;;;1.35;;
56181;SDS011;51963;46.052;14.544;2024-01-16T09:52:24;3.05;;;1.88;;
56181;SDS011;51963;46.052;14.544;2024-01-16T09:54:50;2.80;;;1.67;;
56181;SDS011;51963;46.052;14.544;2024-01-16T09:57:16;3.53;;;1.50;;
56181;SDS011;51963;46.052;14.544;2024-01-16T09:59:45;2.97;;;1.70;;
56181;SDS011;51963;46.052;14.544;2024-01-16T10:02:12;2.88;;;1.70;;
56181;SDS011;51963;46.052;14.544;2024-01-16T10:04:39;2.30;;;1.50;;
56181;SDS011;51963;46.052;14.544;2024-01-16T10:07:07;3.33;;;2.00;;
56181;SDS011;51963;46.052;14.544;2024-01-16T10:09:35;2.42;;;1.83;;
56181;SDS011;51963;46.052;14.544;2024-01-16T10:12:01;3.38;;;1.83;;
56181;SDS011;51963;46.052;14.544;2024-01-16T10:14:28;2.72;;;1.90;;
56181;SDS011;51963;46.052;14.544;2024-01-16T10:16:57;2.83;;;1.67;;
56181;SDS011;51963;46.052;14.544;2024-01-16T10:19:27;3.50;;;1.70;;
56181;SDS011;51963;46.052;14.544;2024-01-16T10:22:01;3.35;;;1.30;;
56181;SDS011;51963;46.052;14.544;2024-01-16T10:24:31;4.18;;;1.60;;
56181;SDS011;51963;46.052;14.544;2024-01-16T10:26:59;3.13;;;1.40;;
56181;SDS011;51963;46.052;14.544;2024-01-16T10:29:26;3.03;;;1.92;;
56181;SDS011;51963;46.052;14.544;2024-01-16T10:31:52;4.07;;;2.47;;
56181;SDS011;51963;46.052;14.544;2024-01-16T10:34:21;2.97;;;1.75;;
56181;SDS011;51963;46.052;14.544;2024-01-16T10:36:50;5.63;;;1.85;;
56181;SDS011;51963;46.052;14.544;2024-01-16T10:39:17;3.30;;;2.08;;
56181;SDS011;51963;46.052;14.544;2024-01-16T10:41:56;4.55;;;1.80;;
56181;SDS011;51963;46.052;14.544;2024-01-16T10:44:23;4.72;;;2.00;;
56181;SDS011;51963;46.052;14.544;2024-01-16T10:46:49;4.40;;;1.90;;
56181;SDS011;51963;46.052;14.544;2024-01-16T10:49:14;2.80;;;1.90;;
56181;SDS011;51963;46.052;14.544;2024-01-16T10:51:42;4.32;;;2.40;;
56181;SDS011;51963;46.052;14.544;2024-01-16T10:54:12;5.15;;;2.28;;
56181;SDS011;51963;46.052;14.544;2024-01-16T10:56:45;3.17;;;2.00;;
56181;SDS011;51963;46.052;14.544;2024-01-16T10:59:21;4.93;;;2.13;;
56181;SDS011;51963;46.052;14.544;2024-01-16T11:01:51;5.30;;;2.45;;
56181;SDS011;51963;46.052;14.544;2024-01-16T11:04:21;6.35;;;2.50;;
56181;SDS011;51963;46.052;14.544;2024-01-16T11:06:50;4.13;;;1.92;;
56181;SDS011;51963;46.052;14.544;2024-01-16T11:09:17;3.85;;;2.60;;
56181;SDS011;51963;46.052;14.544;2024-01-16T11:11:43;5.63;;;1.98;;
56181;SDS011;51963;46.052;14.544;2024-01-16T11:14:11;3.97;;;1.75;;
56181;SDS011;51963;46.052;14.544;2024-01-16T11:16:38;2.63;;;1.83;;
56181;SDS011;51963;46.052;14.544;2024-01-16T11:19:06;3.83;;;2.05;;
56181;SDS011;51963;46.052;14.544;2024-01-16T11:21:33;2.80;;;1.60;;
56181;SDS011;51963;46.052;14.544;2024-01-16T11:24:00;3.28;;;1.80;;
56181;SDS011;51963;46.052;14.544;2024-01-16T11:26:33;3.03;;;1.60;;
56181;SDS011;51963;46.052;14.544;2024-01-16T11:29:49;3.60;;;1.83;;
56181;SDS011;51963;46.052;14.544;2024-01-16T11:31:54;3.20;;;1.80;;
56181;SDS011;51963;46.052;14.544;2024-01-16T11:37:07;2.55;;;1.63;;
56181;SDS011;51963;46.052;14.544;2024-01-16T11:39:36;3.90;;;1.80;;
56181;SDS011;51963;46.052;14.544;2024-01-16T11:42:03;2.97;;;2.13;;
56181;SDS011;51963;46.052;14.544;2024-01-16T11:44:35;4.97;;;2.65;;
56181;SDS011;51963;46.052;14.544;2024-01-16T11:47:01;3.17;;;2.00;;
56181;SDS011;51963;46.052;14.544;2024-01-16T11:49:28;4.45;;;2.58;;
56181;SDS011;51963;46.052;14.544;2024-01-16T11:51:55;3.93;;;1.80;;
56181;SDS011;51963;46.052;14.544;2024-01-16T11:54:21;4.80;;;1.98;;
56181;SDS011;51963;46.052;14.544;2024-01-16T12:02:34;3.75;;;1.92;;
56181;SDS011;51963;46.052;14.544;2024-01-16T12:05:19;3.78;;;2.30;;
56181;SDS011;51963;46.052;14.544;2024-01-16T12:07:50;3.53;;;1.80;;
56181;SDS011;51963;46.052;14.544;2024-01-16T12:10:19;2.55;;;1.83;;
56181;SDS011;51963;46.052;14.544;2024-01-16T12:12:47;3.60;;;2.13;;
56181;SDS011;51963;46.052;14.544;2024-01-16T12:15:13;3.95;;;1.65;;
56181;SDS011;51963;46.052;14.544;2024-01-16T12:17:52;3.92;;;2.10;;
56181;SDS011;51963;46.052;14.544;2024-01-16T12:20:21;3.65;;;2.05;;
56181;SDS011;51963;46.052;14.544;2024-01-16T12:25:27;3.60;;;1.98;;
56181;SDS011;51963;46.052;14.544;2024-01-16T12:27:57;5.00;;;2.38;;
56181;SDS011;51963;46.052;14.544;2024-01-16T12:30:24;4.25;;;1.98;;
56181;SDS011;51963;46.052;14.544;2024-01-16T12:32:51;4.13;;;2.28;;
56181;SDS011;51963;46.052;14.544;2024-01-16T12:35:21;3.13;;;2.15;;
56181;SDS011;51963;46.052;14.544;2024-01-16T12:37:57;3.78;;;2.00;;
56181;SDS011;51963;46.052;14.544;2024-01-16T12:40:24;2.28;;;1.75;;
56181;SDS011;51963;46.052;14.544;2024-01-16T12:42:50;2.20;;;1.60;;
56181;SDS011;51963;46.052;14.544;2024-01-16T12:45:17;4.10;;;1.98;;
56181;SDS011;51963;46.052;14.544;2024-01-16T12:47:43;3.38;;;1.65;;
56181;SDS011;51963;46.052;14.544;2024-01-16T12:50:10;3.78;;;2.25;;
56181;SDS011;51963;46.052;14.544;2024-01-16T12:52:36;5.63;;;2.40;;
56181;SDS011;51963;46.052;14.544;2024-01-16T12:55:01;3.97;;;2.20;;
56181;SDS011;51963;46.052;14.544;2024-01-16T12:57:29;4.43;;;2.00;;
56181;SDS011;51963;46.052;14.544;2024-01-16T12:59:55;3.22;;;1.95;;
56181;SDS011;51963;46.052;14.544;2024-01-16T13:02:23;3.95;;;2.08;;
56181;SDS011;51963;46.052;14.544;2024-01-16T13:04:59;4.70;;;2.43;;
56181;SDS011;51963;46.052;14.544;2024-01-16T13:07:28;3.20;;;1.95;;
56181;SDS011;51963;46.052;14.544;2024-01-16T13:12:37;4.32;;;2.00;;
56181;SDS011;51963;46.052;14.544;2024-01-16T13:15:03;4.70;;;2.28;;
56181;SDS011;51963;46.052;14.544;2024-01-16T13:17:32;2.78;;;1.63;;
56181;SDS011;51963;46.052;14.544;2024-01-16T13:20:01;4.68;;;2.35;;
56181;SDS011;51963;46.052;14.544;2024-01-16T13:22:27;7.53;;;2.10;;
56181;SDS011;51963;46.052;14.544;2024-01-16T13:24:52;4.50;;;2.10;;
56181;SDS011;51963;46.052;14.544;2024-01-16T13:27:18;2.88;;;1.80;;
56181;SDS011;51963;46.052;14.544;2024-01-16T13:29:44;4.05;;;1.90;;
56181;SDS011;51963;46.052;14.544;2024-01-16T13:32:10;3.13;;;1.77;;
56181;SDS011;51963;46.052;14.544;2024-01-16T13:34:36;3.45;;;2.08;;
56181;SDS011;51963;46.052;14.544;2024-01-16T13:37:02;4.43;;;2.47;;
56181;SDS011;51963;46.052;14.544;2024-01-16T13:39:29;3.50;;;1.95;;
56181;SDS011;51963;46.052;14.544;2024-01-16T13:42:00;4.25;;;2.10;;
56181;SDS011;51963;46.052;14.544;2024-01-16T13:44:25;4.57;;;2.28;;
56181;SDS011;51963;46.052;14.544;2024-01-16T13:46:52;3.83;;;2.13;;
56181;SDS011;51963;46.052;14.544;2024-01-16T13:49:17;2.78;;;2.03;;
56181;SDS011;51963;46.052;14.544;2024-01-16T13:51:46;5.82;;;3.58;;
56181;SDS011;51963;46.052;14.544;2024-01-16T13:54:11;6.22;;;2.58;;
56181;SDS011;51963;46.052;14.544;2024-01-16T13:56:37;2.83;;;1.75;;
56181;SDS011;51963;46.052;14.544;2024-01-16T13:59:04;8.43;;;2.10;;
56181;SDS011;51963;46.052;14.544;2024-01-16T14:01:30;5.03;;;1.92;;
56181;SDS011;51963;46.052;14.544;2024-01-16T14:03:56;5.15;;;1.60;;
56181;SDS011;51963;46.052;14.544;2024-01-16T14:06:22;4.13;;;1.83;;
56181;SDS011;51963;46.052;14.544;2024-01-16T14:08:47;3.33;;;2.20;;
56181;SDS011;51963;46.052;14.544;2024-01-16T14:11:13;4.38;;;2.40;;
56181;SDS011;51963;46.052;14.544;2024-01-16T14:13:39;9.90;;;2.83;;
56181;SDS011;51963;46.052;14.544;2024-01-16T14:16:04;5.28;;;2.70;;
56181;SDS011;51963;46.052;14.544;2024-01-16T14:18:30;7.18;;;2.60;;
56181;SDS011;51963;46.052;14.544;2024-01-16T14:20:56;4.13;;;2.10;;
56181;SDS011;51963;46.052;14.544;2024-01-16T14:23:22;4.78;;;2.03;;
56181;SDS011;51963;46.052;14.544;2024-01-16T14:25:48;3.35;;;2.03;;
56181;SDS011;51963;46.052;14.544;2024-01-16T14:28:13;4.65;;;2.10;;
56181;SDS011;51963;46.052;14.544;2024-01-16T14:30:39;4.05;;;2.20;;
56181;SDS011;51963;46.052;14.544;2024-01-16T14:33:05;13.63;;;2.50;;
56181;SDS011;51963;46.052;14.544;2024-01-16T14:35:34;8.18;;;2.53;;
56181;SDS011;51963;46.052;14.544;2024-01-16T14:37:59;9.57;;;2.15;;
56181;SDS011;51963;46.052;14.544;2024-01-16T14:40:25;5.63;;;1.98;;
56181;SDS011;51963;46.052;14.544;2024-01-16T14:42:54;3.92;;;2.00;;
56181;SDS011;51963;46.052;14.544;2024-01-16T14:45:24;5.65;;;2.13;;